Latest Weather Observations for Gympie

IDQ60801

Issued at 5:32 pm EST Tuesday 16 January 2018 (issued every 30 minutes, with the page automatically refreshed every 10 minutes)

About weather observations | Map of weather stations | Latest weather observations for QLD | Other Formats
Station Details ID: 040093 Name: GYMPIE Lat: -26.18 Lon: 152.64 Height: 64.5 m
Data from the previous 72 hours. | See also: Recent months at Gympie
Date/Time
EST
Temp
°C
App
Temp
°C
Dew
Point
°C
Rel
Hum
%
Delta-T
°C
Wind Press
QNH
hPa
Press
MSL
hPa
Rain since
9am
mm
Dir  Spd
km/h
Gust
km/h
Spd
kts
Gust
kts
16/05:30pm 25.2 24.8 15.2 54 6.0 ESE 11 19 6 10 1013.6 1013.2 0.0
16/05:00pm 25.9 25.2 15.3 52 6.4 E 13 24 7 13 1012.9 1012.5 0.0
16/04:30pm 26.5 25.4 15.2 49 6.9 E 15 24 8 13 1012.7 1012.3 0.0
16/04:00pm 27.0 26.2 16.0 51 6.8 E 15 26 8 14 1012.5 1012.1 0.0
16/03:30pm 27.8 27.1 15.5 47 7.5 E 13 22 7 12 1012.4 1012.0 0.0
16/03:00pm 28.0 27.2 15.0 45 7.9 NE 13 22 7 12 1012.5 1012.1 0.0
16/02:30pm 28.9 28.2 15.4 44 8.3 ENE 13 32 7 17 1012.7 1012.3 0.0
16/02:00pm 29.2 28.5 15.3 42 8.5 ESE 13 24 7 13 1012.9 1012.5 0.0
16/01:30pm 29.7 28.7 12.2 34 10.3 ESE 9 24 5 13 1012.9 1012.5 0.0
16/01:00pm 29.0 28.0 12.4 36 9.7 ESE 9 17 5 9 1013.2 1012.8 0.0
16/12:30pm 29.4 29.2 13.6 38 9.5 SSW 7 20 4 11 1013.2 1012.8 0.0
16/12:00pm 28.5 27.0 12.0 36 9.6 S 11 19 6 10 1013.5 1013.1 0.0
16/11:30am 28.2 27.0 11.7 36 9.5 S 9 19 5 10 1013.8 1013.4 0.0
16/11:00am 27.6 25.1 11.2 36 9.4 SE 15 28 8 15 1014.1 1013.7 0.0
16/10:30am 26.8 25.7 12.1 40 8.5 SSE 9 19 5 10 1014.4 1014.0 0.0
16/10:00am 26.6 25.6 13.3 43 7.8 S 11 26 6 14 1014.4 1014.0 0.0
16/09:30am 26.1 24.4 12.5 42 7.9 SSE 13 22 7 12 1014.5 1014.1 0.0
16/09:00am 25.6 24.1 13.1 46 7.3 S 13 24 7 13 1014.6 1014.2 0.0
16/08:30am 24.6 24.9 14.4 53 6.1 S 6 15 3 8 1014.5 1014.1 0.0
16/08:00am 23.2 23.8 15.3 61 4.7 SSE 6 9 3 5 1014.5 1014.1 0.0
16/07:30am 21.8 23.1 16.1 70 3.4 SE 4 6 2 3 1014.5 1014.1 0.0
16/07:00am 20.1 22.2 16.3 79 2.3 CALM 0 0 0 0 1014.2 1013.8 0.0
16/06:30am 18.0 20.1 16.3 90 1.0 CALM 0 0 0 0 1013.9 1013.5 0.0
16/06:00am 16.8 18.8 16.0 95 0.5 CALM 0 0 0 0 1013.5 1013.1 0.0
16/05:30am 16.0 17.8 15.5 97 0.3 CALM 0 0 0 0 1013.1 1012.7 0.0
16/05:00am 16.4 18.3 15.8 96 0.4 CALM 0 0 0 0 1012.5 1012.1 0.0
16/04:30am 16.7 18.7 15.9 95 0.5 CALM 0 0 0 0 1012.3 1011.9 0.0
16/04:00am 16.9 18.9 16.1 95 0.5 CALM 0 0 0 0 1012.0 1011.6 0.0
16/03:30am 17.4 19.5 16.3 93 0.7 CALM 0 0 0 0 1011.9 1011.5 0.0
16/03:00am 17.8 20.1 16.8 94 0.6 CALM 0 0 0 0 1011.9 1011.5 0.0
16/02:30am 18.3 20.6 16.8 91 0.9 CALM 0 0 0 0 1011.9 1011.5 0.0
16/02:00am 18.4 20.7 16.7 90 1.0 CALM 0 0 0 0 1012.1 1011.7 0.0
16/01:30am 18.5 20.7 16.5 88 1.2 CALM 0 0 0 0 1012.2 1011.8 0.0
16/01:00am 18.2 20.4 16.5 90 1.0 CALM 0 0 0 0 1012.5 1012.1 0.0
16/12:30am 18.2 20.4 16.5 90 1.0 CALM 0 0 0 0 1012.7 1012.3 0.0
16/12:00am 18.5 20.7 16.5 88 1.2 CALM 0 0 0 0 1012.8 1012.4 0.0
 
Date/Time
EST
Temp
°C
App
Temp
°C
Dew
Point
°C
Rel
Hum
%
Delta-T
°C
Wind Press
QNH
hPa
Press
MSL
hPa
Rain since
9am
mm
Dir  Spd
km/h
Gust
km/h
Spd
kts
Gust
kts
15/11:30pm 18.7 20.9 16.5 87 1.3 CALM 0 0 0 0 1012.9 1012.5 0.0
15/11:00pm 19.7 21.8 16.3 81 2.0 CALM 0 0 0 0 1013.1 1012.7 0.0
15/10:30pm 19.7 21.8 16.3 81 2.0 CALM 0 0 0 0 1013.0 1012.6 0.0
15/10:00pm 20.8 22.0 16.0 74 2.9 SE 4 7 2 4 1013.0 1012.6 0.0
15/09:30pm 20.6 22.6 16.0 75 2.8 CALM 0 4 0 2 1012.8 1012.4 0.0
15/09:00pm 20.2 21.4 16.0 77 2.5 SSE 4 6 2 3 1012.6 1012.2 0.0
15/08:30pm 20.8 22.3 15.8 73 3.0 SSE 2 4 1 2 1012.2 1011.8 0.0
15/08:00pm 21.4 22.1 15.7 70 3.4 SSE 6 13 3 7 1012.0 1011.6 0.0
15/07:30pm 22.3 22.0 15.4 65 4.1 SE 11 20 6 11 1011.7 1011.3 0.0
15/07:00pm 22.9 22.6 14.5 59 5.0 SE 9 17 5 9 1011.4 1011.0 0.0
15/06:30pm 23.8 22.7 14.2 55 5.7 SE 13 22 7 12 1010.9 1010.5 0.0
15/06:00pm 24.7 22.8 14.2 52 6.2 ESE 17 26 9 14 1010.5 1010.1 0.0
15/05:30pm 25.2 23.9 14.9 52 6.2 SE 15 28 8 15 1009.8 1009.4 0.0
15/05:00pm 26.2 25.0 15.0 50 6.8 E 15 24 8 13 1009.3 1008.9 0.0
15/04:30pm 26.7 25.5 15.1 49 7.0 ESE 15 24 8 13 1008.8 1008.4 0.0
15/04:00pm 27.6 27.5 15.9 49 7.2 ESE 11 24 6 13 1008.7 1008.3 0.0
15/03:30pm 27.6 26.9 15.3 47 7.5 E 13 26 7 14 1008.6 1008.2 0.0
15/03:00pm 27.7 26.2 14.3 43 8.1 ESE 15 24 8 13 1008.8 1008.4 0.0
15/02:30pm 28.7 28.8 15.6 45 8.1 ESE 9 20 5 11 1008.8 1008.4 0.0
15/02:00pm 27.6 26.5 14.3 44 8.0 E 13 26 7 14 1009.2 1008.8 0.0
15/01:30pm 28.3 27.0 11.4 35 9.7 SE 9 17 5 9 1009.5 1009.1 0.0
15/01:00pm 28.4 27.4 12.3 37 9.4 SE 9 19 5 10 1009.7 1009.3 0.0
15/12:30pm 27.2 25.7 10.4 35 9.5 SE 9 17 5 9 1009.9 1009.5 0.0
15/12:00pm 27.5 27.3 11.9 38 9.0 SSE 4 7 2 4 1010.1 1009.7 0.0
15/11:30am 27.6 27.1 12.8 40 8.7 S 7 13 4 7 1010.6 1010.2 0.0
15/11:00am 27.3 27.5 14.3 45 7.8 SSE 6 9 3 5 1010.8 1010.4 0.0
15/10:30am 26.7 26.7 14.1 46 7.5 SSE 7 15 4 8 1010.9 1010.5 0.0
15/10:00am 26.1 25.5 13.6 46 7.4 S 9 19 5 10 1011.0 1010.6 0.0
15/09:30am 25.7 25.8 14.5 50 6.7 SE 7 15 4 8 1011.1 1010.7 0.0
15/09:00am 24.8 23.7 13.0 47 6.9 SSE 11 22 6 12 1011.2 1010.8 0.0
15/08:30am 24.3 23.0 12.6 48 6.7 SSE 11 19 6 10 1011.3 1010.9 0.0
15/08:00am 23.3 21.8 12.0 49 6.4 SSE 11 20 6 11 1011.5 1011.1 0.0
15/07:30am 22.6 21.8 11.7 50 6.1 SSE 7 17 4 9 1011.3 1010.9 0.0
15/07:00am 21.9 21.4 12.5 55 5.3 SSE 7 15 4 8 1010.8 1010.4 0.0
15/06:30am 20.7 20.9 13.2 62 4.3 SSE 4 9 2 5 1010.5 1010.1 0.0
15/06:00am 18.9 19.3 12.4 66 3.6 E 2 2 1 1 1010.2 1009.8 0.0
15/05:30am 18.3 18.7 12.5 69 3.2 SSE 2 7 1 4 1009.8 1009.4 0.0
15/05:00am 18.4 18.5 12.6 69 3.3 SSE 4 7 2 4 1009.3 1008.9 0.0
15/04:30am 18.1 17.9 13.0 72 2.9 S 6 9 3 5 1008.7 1008.3 0.0
15/04:00am 18.5 18.8 13.4 72 2.9 SSE 4 7 2 4 1008.5 1008.1 0.0
15/03:30am 18.5 19.2 14.4 77 2.4 S 4 6 2 3 1008.2 1007.8 0.0
15/03:00am 18.7 19.5 14.8 78 2.3 S 4 6 2 3 1008.2 1007.8 0.0
15/02:30am 19.2 20.3 14.5 74 2.7 SSE 2 2 1 1 1008.3 1007.9 0.0
15/02:00am 19.5 20.5 14.3 72 3.0 SSE 2 6 1 3 1008.5 1008.1 0.0
15/01:30am 19.9 20.5 14.3 70 3.3 SE 4 9 2 5 1008.6 1008.2 0.0
15/01:00am 20.0 21.1 14.6 71 3.2 SSE 2 4 1 2 1008.7 1008.3 0.0
15/12:30am 20.7 21.2 15.0 70 3.4 SSE 6 7 3 4 1008.9 1008.5 0.0
15/12:00am 21.2 21.6 15.3 69 3.5 SSE 7 15 4 8 1008.7 1008.3 0.0
 
Date/Time
EST
Temp
°C
App
Temp
°C
Dew
Point
°C
Rel
Hum
%
Delta-T
°C
Wind Press
QNH
hPa
Press
MSL
hPa
Rain since
9am
mm
Dir  Spd
km/h
Gust
km/h
Spd
kts
Gust
kts
14/11:30pm 22.0 22.3 16.1 69 3.6 SSE 9 17 5 9 1008.5 1008.1 0.0
14/11:00pm 22.6 22.3 16.4 68 3.8 SSE 13 22 7 12 1008.3 1007.9 0.0
14/10:30pm 23.4 23.3 16.9 67 4.0 SE 13 28 7 15 1007.8 1007.4 0.0
14/10:00pm 23.9 24.1 17.6 68 3.9 SSE 13 26 7 14 1007.7 1007.3 0.0
14/09:30pm 24.2 24.0 18.4 70 3.7 SE 17 32 9 17 1007.6 1007.2 0.0
14/09:00pm 24.6 24.3 19.2 72 3.5 SE 19 33 10 18 1006.8 1006.5 0.0
14/08:30pm 25.2 24.8 20.2 74 3.3 SE 22 43 12 23 1006.1 1005.8 0.0
14/08:00pm 25.6 26.2 21.3 77 2.9 SE 20 41 11 22 1005.5 1005.2 0.0
14/07:30pm 27.1 27.5 21.8 73 3.6 SE 22 33 12 18 1004.3 1004.0 0.0
14/07:00pm 31.2 30.7 12.5 31 11.1 S 7 13 4 7 1002.9 1002.6 0.0
14/06:30pm 32.8 31.1 12.4 29 12.2 S 13 22 7 12 1002.1 1001.7 0.0
14/06:00pm 34.1 31.8 13.0 28 12.8 SSW 17 32 9 17 1001.5 1001.1 0.0
14/05:30pm 35.5 35.3 14.7 28 12.9 SSW 9 22 5 12 1000.9 1000.5 0.0
14/05:00pm 36.1 35.3 15.2 28 13.2 SW 13 22 7 12 1000.2 999.8 0.0
14/04:30pm 36.5 34.9 15.0 27 13.5 SW 17 30 9 16 999.6 999.2 0.0
14/04:00pm 36.7 36.6 17.8 32 12.4 SW 15 26 8 14 999.4 999.0 0.0
14/03:30pm 36.5 37.5 19.4 36 11.4 WNW 13 28 7 15 999.3 998.9 0.0
14/03:00pm 35.3 37.7 20.8 42 9.8 WNW 9 13 5 7 999.7 999.3 0.0
14/02:30pm 36.0 37.4 20.3 40 10.6 NW 13 19 7 10 999.9 999.5 0.0
14/02:00pm 35.9 37.8 21.3 42 10.0 WNW 13 28 7 15 1000.1 999.7 0.0
14/01:30pm 35.1 39.1 23.8 52 7.9 WNW 9 17 5 9 1000.5 1000.1 0.0
14/01:00pm 31.4 35.6 23.2 61 5.7 WSW 6 9 3 5 1001.1 1000.7 0.0
14/12:30pm 34.6 36.3 21.6 46 8.9 WNW 15 28 8 15 1001.2 1000.8 0.0
14/12:00pm 34.3 36.4 21.7 47 8.6 NW 13 20 7 11 1001.5 1001.1 0.0
14/11:30am 34.3 37.1 23.0 51 7.8 NNW 13 24 7 13 1002.1 1001.7 0.0
14/11:00am 32.9 36.0 23.5 57 6.6 NNW 13 20 7 11 1002.8 1002.5 0.0
14/10:30am 31.9 35.7 24.0 63 5.5 NNW 11 17 6 9 1003.2 1002.9 0.0
14/10:00am 30.6 33.3 23.5 66 4.9 NW 15 24 8 13 1003.5 1003.2 0.0
14/09:30am 30.3 34.4 24.0 69 4.4 NNW 9 19 5 10 1003.8 1003.5 0.0
14/09:00am 29.0 32.2 23.7 73 3.7 NNW 13 20 7 11 1003.8 1003.5 4.8
14/08:30am 27.8 30.3 23.2 76 3.1 N 15 24 8 13 1004.0 1003.7 4.8
14/08:00am 27.2 30.0 23.0 78 2.9 NNW 13 19 7 10 1004.3 1004.0 4.8
14/07:30am 26.5 29.6 22.8 80 2.5 NNW 11 19 6 10 1004.5 1004.2 4.8
14/07:00am 25.6 29.0 22.7 84 2.0 N 9 13 5 7 1004.8 1004.5 4.8
14/06:30am 25.0 28.4 22.7 87 1.6 NNW 9 15 5 8 1004.5 1004.2 4.8
14/06:00am 24.3 28.5 22.4 89 1.3 N 4 7 2 4 1004.4 1004.1 4.8
14/05:30am 24.1 28.0 22.5 91 1.1 NNW 6 7 3 4 1004.0 1003.7 4.8
14/05:00am 24.2 27.9 22.5 90 1.1 N 7 13 4 7 1004.0 1003.7 4.8
14/04:30am 24.5 28.0 22.8 90 1.1 NNW 9 13 5 7 1003.8 1003.5 4.8
14/04:00am 24.4 27.8 22.7 90 1.1 NNW 9 15 5 8 1003.5 1003.2 4.8
14/03:30am 24.5 28.3 22.8 90 1.1 NNW 7 15 4 8 1003.7 1003.4 4.8
14/03:00am 24.4 28.4 22.8 91 1.1 NNW 6 9 3 5 1003.8 1003.5 4.8
14/02:30am 24.4 28.2 22.7 90 1.1 NNW 7 11 4 6 1003.9 1003.6 4.8
14/02:00am 24.5 28.0 22.9 91 1.1 NNW 9 17 5 9 1004.2 1003.9 4.8
14/01:30am 24.7 28.3 23.1 91 1.1 NNW 9 19 5 10 1004.4 1004.1 4.8
14/01:00am 24.5 28.4 22.9 91 1.1 NNW 7 11 4 6 1004.8 1004.5 4.8
14/12:30am 24.3 28.9 23.1 93 0.8 N 4 7 2 4 1005.3 1005.0 4.8
14/12:00am 23.7 28.4 22.7 94 0.7 NE 2 6 1 3 1005.9 1005.6 4.8
 
Date/Time
EST
Temp
°C
App
Temp
°C
Dew
Point
°C
Rel
Hum
%
Delta-T
°C
Wind Press
QNH
hPa
Press
MSL
hPa
Rain since
9am
mm
Dir  Spd
km/h
Gust
km/h
Spd
kts
Gust
kts
13/11:30pm 23.0 26.9 21.8 93 0.8 NNE 4 6 2 3 1006.1 1005.8 4.8
13/11:00pm 23.2 26.4 21.3 89 1.3 WNW 6 9 3 5 1007.2 1006.8 4.8
13/10:30pm 22.4 26.2 21.6 95 0.5 WSW 4 9 2 5 1007.5 1007.1 4.8
13/10:00pm 22.3 25.9 21.3 94 0.7 NW 4 7 2 4 1007.5 1007.1 4.8
13/09:30pm 22.3 24.3 21.5 95 0.5 N 13 19 7 10 1007.4 1007.0 4.8
13/09:00pm 22.7 22.1 20.6 88 1.4 N 24 43 13 23 1008.0 1007.6 3.6
13/08:43pm 24.6 24.3 22.5 88 1.4 NNW 28 54 15 29 1009.0 1008.6 0.4
13/08:30pm 25.7 29.1 22.0 80 2.5 SW 7 19 4 10 1008.7 1008.3 0.0
13/08:00pm 29.1 33.8 23.3 71 4.0 NNE 4 6 2 3 1008.0 1007.6 0.0
13/07:30pm 28.6 32.7 23.3 73 3.6 SW 7 19 4 10 1007.7 1007.3 0.0
13/07:26pm 28.6 32.3 23.3 73 3.6 NW 9 19 5 10 1007.3 1006.9 0.0
13/07:00pm 29.2 32.2 23.4 71 4.0 N 13 28 7 15 1005.1 1004.8 0.0
13/06:30pm 30.0 32.2 23.2 67 4.7 N 17 30 9 16 1004.4 1004.1 0.0
13/06:00pm 31.2 33.4 23.3 63 5.5 N 17 32 9 17 1004.4 1004.1 0.0

Other Formats:

Comma delimited format used in spreadsheet applications
http://www.bom.gov.au/fwo/IDQ60801/IDQ60801.94566.axf

JavaScript Object Notation format (JSON) in row-major order
http://www.bom.gov.au/fwo/IDQ60801/IDQ60801.94566.json